sensor_id;sensor_type;location;lat;lon;timestamp;P1;durP1;ratioP1;P2;durP2;ratioP2
34805;SDS011;65084;42.196;25.326;2023-09-12T00:00:32;2.88;;;1.58;;
34805;SDS011;65084;42.196;25.326;2023-09-12T00:03:01;6.78;;;1.20;;
34805;SDS011;65084;42.196;25.326;2023-09-12T00:05:28;7.13;;;1.52;;
34805;SDS011;65084;42.196;25.326;2023-09-12T00:07:55;4.32;;;1.23;;
34805;SDS011;65084;42.196;25.326;2023-09-12T00:10:23;9.18;;;1.92;;
34805;SDS011;65084;42.196;25.326;2023-09-12T00:12:50;1.95;;;1.65;;
34805;SDS011;65084;42.196;25.326;2023-09-12T00:15:17;5.38;;;1.70;;
34805;SDS011;65084;42.196;25.326;2023-09-12T00:17:45;8.00;;;2.10;;
34805;SDS011;65084;42.196;25.326;2023-09-12T00:20:15;7.28;;;2.65;;
34805;SDS011;65084;42.196;25.326;2023-09-12T00:22:42;1.40;;;1.25;;
34805;SDS011;65084;42.196;25.326;2023-09-12T00:25:09;2.38;;;1.55;;
34805;SDS011;65084;42.196;25.326;2023-09-12T00:27:36;2.00;;;1.80;;
34805;SDS011;65084;42.196;25.326;2023-09-12T00:30:04;3.17;;;1.77;;
34805;SDS011;65084;42.196;25.326;2023-09-12T00:32:32;7.13;;;1.92;;
34805;SDS011;65084;42.196;25.326;2023-09-12T00:34:59;1.75;;;1.60;;
34805;SDS011;65084;42.196;25.326;2023-09-12T00:37:28;4.32;;;1.45;;
34805;SDS011;65084;42.196;25.326;2023-09-12T00:39:55;2.75;;;1.30;;
34805;SDS011;65084;42.196;25.326;2023-09-12T00:42:24;3.00;;;1.90;;
34805;SDS011;65084;42.196;25.326;2023-09-12T00:44:52;5.43;;;1.60;;
34805;SDS011;65084;42.196;25.326;2023-09-12T00:47:19;4.63;;;1.80;;
34805;SDS011;65084;42.196;25.326;2023-09-12T00:49:48;4.35;;;1.58;;
34805;SDS011;65084;42.196;25.326;2023-09-12T00:52:16;1.30;;;1.20;;
34805;SDS011;65084;42.196;25.326;2023-09-12T00:54:45;1.92;;;1.45;;
34805;SDS011;65084;42.196;25.326;2023-09-12T00:57:13;6.32;;;1.60;;
34805;SDS011;65084;42.196;25.326;2023-09-12T00:59:40;3.95;;;1.52;;
34805;SDS011;65084;42.196;25.326;2023-09-12T01:02:07;2.65;;;1.50;;
34805;SDS011;65084;42.196;25.326;2023-09-12T01:04:35;1.80;;;1.50;;
34805;SDS011;65084;42.196;25.326;2023-09-12T01:07:02;6.88;;;1.65;;
34805;SDS011;65084;42.196;25.326;2023-09-12T01:09:30;4.50;;;1.60;;
34805;SDS011;65084;42.196;25.326;2023-09-12T01:11:58;2.70;;;1.63;;
34805;SDS011;65084;42.196;25.326;2023-09-12T01:14:27;2.80;;;1.50;;
34805;SDS011;65084;42.196;25.326;2023-09-12T01:16:55;3.15;;;1.60;;
34805;SDS011;65084;42.196;25.326;2023-09-12T01:19:22;8.73;;;1.85;;
34805;SDS011;65084;42.196;25.326;2023-09-12T01:21:56;1.50;;;1.40;;
34805;SDS011;65084;42.196;25.326;2023-09-12T01:27:30;3.20;;;1.50;;
34805;SDS011;65084;42.196;25.326;2023-09-12T01:30:00;3.95;;;1.73;;
34805;SDS011;65084;42.196;25.326;2023-09-12T01:32:29;5.90;;;1.90;;
34805;SDS011;65084;42.196;25.326;2023-09-12T01:34:56;2.72;;;1.42;;
34805;SDS011;65084;42.196;25.326;2023-09-12T01:37:24;3.72;;;1.20;;
34805;SDS011;65084;42.196;25.326;2023-09-12T01:39:51;2.47;;;1.67;;
34805;SDS011;65084;42.196;25.326;2023-09-12T01:42:20;3.13;;;1.50;;
34805;SDS011;65084;42.196;25.326;2023-09-12T01:44:50;3.05;;;1.30;;
34805;SDS011;65084;42.196;25.326;2023-09-12T01:47:17;3.28;;;1.33;;
34805;SDS011;65084;42.196;25.326;2023-09-12T01:49:46;2.55;;;1.50;;
34805;SDS011;65084;42.196;25.326;2023-09-12T01:52:14;4.65;;;1.55;;
34805;SDS011;65084;42.196;25.326;2023-09-12T01:54:41;3.65;;;1.45;;
34805;SDS011;65084;42.196;25.326;2023-09-12T01:57:09;7.60;;;1.45;;
34805;SDS011;65084;42.196;25.326;2023-09-12T01:59:36;3.40;;;1.60;;
34805;SDS011;65084;42.196;25.326;2023-09-12T02:02:05;2.40;;;1.90;;
34805;SDS011;65084;42.196;25.326;2023-09-12T02:04:33;3.17;;;1.83;;
34805;SDS011;65084;42.196;25.326;2023-09-12T02:07:00;1.73;;;1.63;;
34805;SDS011;65084;42.196;25.326;2023-09-12T02:09:27;3.05;;;1.55;;
34805;SDS011;65084;42.196;25.326;2023-09-12T02:11:54;4.90;;;1.85;;
34805;SDS011;65084;42.196;25.326;2023-09-12T02:14:22;4.05;;;1.63;;
34805;SDS011;65084;42.196;25.326;2023-09-12T02:16:49;6.68;;;2.03;;
34805;SDS011;65084;42.196;25.326;2023-09-12T02:19:18;2.85;;;2.15;;
34805;SDS011;65084;42.196;25.326;2023-09-12T02:21:45;6.88;;;2.15;;
34805;SDS011;65084;42.196;25.326;2023-09-12T02:24:12;6.00;;;2.15;;
34805;SDS011;65084;42.196;25.326;2023-09-12T02:26:40;3.95;;;2.22;;
34805;SDS011;65084;42.196;25.326;2023-09-12T02:29:08;5.00;;;2.15;;
34805;SDS011;65084;42.196;25.326;2023-09-12T02:31:35;4.53;;;2.50;;
34805;SDS011;65084;42.196;25.326;2023-09-12T02:34:03;7.57;;;2.20;;
34805;SDS011;65084;42.196;25.326;2023-09-12T02:36:31;4.10;;;2.35;;
34805;SDS011;65084;42.196;25.326;2023-09-12T02:38:58;4.75;;;2.03;;
34805;SDS011;65084;42.196;25.326;2023-09-12T02:41:26;11.32;;;2.33;;
34805;SDS011;65084;42.196;25.326;2023-09-12T02:43:53;5.15;;;2.58;;
34805;SDS011;65084;42.196;25.326;2023-09-12T02:46:20;12.65;;;2.70;;
34805;SDS011;65084;42.196;25.326;2023-09-12T02:48:47;2.40;;;2.20;;
34805;SDS011;65084;42.196;25.326;2023-09-12T02:51:15;8.80;;;2.47;;
34805;SDS011;65084;42.196;25.326;2023-09-12T02:53:43;4.72;;;2.10;;
34805;SDS011;65084;42.196;25.326;2023-09-12T02:56:11;3.78;;;2.42;;
34805;SDS011;65084;42.196;25.326;2023-09-12T02:58:38;2.50;;;2.30;;
34805;SDS011;65084;42.196;25.326;2023-09-12T03:01:04;4.65;;;2.50;;
34805;SDS011;65084;42.196;25.326;2023-09-12T03:03:32;7.32;;;2.03;;
34805;SDS011;65084;42.196;25.326;2023-09-12T03:05:59;2.97;;;2.22;;
34805;SDS011;65084;42.196;25.326;2023-09-12T03:08:27;5.13;;;2.50;;
34805;SDS011;65084;42.196;25.326;2023-09-12T03:10:56;3.55;;;2.30;;
34805;SDS011;65084;42.196;25.326;2023-09-12T03:13:24;2.33;;;2.03;;
34805;SDS011;65084;42.196;25.326;2023-09-12T03:15:51;5.13;;;2.20;;
34805;SDS011;65084;42.196;25.326;2023-09-12T03:18:18;5.50;;;2.25;;
34805;SDS011;65084;42.196;25.326;2023-09-12T03:20:46;16.08;;;2.42;;
34805;SDS011;65084;42.196;25.326;2023-09-12T03:23:13;11.93;;;2.50;;
34805;SDS011;65084;42.196;25.326;2023-09-12T03:25:40;7.35;;;2.22;;
34805;SDS011;65084;42.196;25.326;2023-09-12T03:28:09;5.30;;;2.20;;
34805;SDS011;65084;42.196;25.326;2023-09-12T03:30:36;1.90;;;1.70;;
34805;SDS011;65084;42.196;25.326;2023-09-12T03:33:04;6.18;;;2.00;;
34805;SDS011;65084;42.196;25.326;2023-09-12T03:35:32;4.05;;;2.00;;
34805;SDS011;65084;42.196;25.326;2023-09-12T03:37:59;4.13;;;1.95;;
34805;SDS011;65084;42.196;25.326;2023-09-12T03:40:28;5.22;;;1.73;;
34805;SDS011;65084;42.196;25.326;2023-09-12T03:42:55;5.28;;;2.42;;
34805;SDS011;65084;42.196;25.326;2023-09-12T03:45:24;2.97;;;1.73;;
34805;SDS011;65084;42.196;25.326;2023-09-12T03:47:51;7.43;;;2.58;;
34805;SDS011;65084;42.196;25.326;2023-09-12T03:50:19;7.68;;;1.77;;
34805;SDS011;65084;42.196;25.326;2023-09-12T03:52:46;3.05;;;1.75;;
34805;SDS011;65084;42.196;25.326;2023-09-12T03:55:13;3.45;;;2.08;;
34805;SDS011;65084;42.196;25.326;2023-09-12T03:57:41;2.58;;;1.70;;
34805;SDS011;65084;42.196;25.326;2023-09-12T04:00:08;6.05;;;2.33;;
34805;SDS011;65084;42.196;25.326;2023-09-12T04:02:37;5.25;;;1.92;;
34805;SDS011;65084;42.196;25.326;2023-09-12T04:05:04;7.85;;;2.00;;
34805;SDS011;65084;42.196;25.326;2023-09-12T04:07:32;4.28;;;1.70;;
34805;SDS011;65084;42.196;25.326;2023-09-12T04:09:59;4.05;;;2.78;;
34805;SDS011;65084;42.196;25.326;2023-09-12T04:12:26;4.82;;;2.00;;
34805;SDS011;65084;42.196;25.326;2023-09-12T04:14:53;3.45;;;1.98;;
34805;SDS011;65084;42.196;25.326;2023-09-12T04:17:21;2.63;;;1.92;;
34805;SDS011;65084;42.196;25.326;2023-09-12T04:19:50;7.80;;;1.70;;
34805;SDS011;65084;42.196;25.326;2023-09-12T04:22:17;4.15;;;1.50;;
34805;SDS011;65084;42.196;25.326;2023-09-12T04:24:44;3.55;;;2.00;;
34805;SDS011;65084;42.196;25.326;2023-09-12T04:27:12;3.83;;;1.73;;
34805;SDS011;65084;42.196;25.326;2023-09-12T04:29:39;4.25;;;1.50;;
34805;SDS011;65084;42.196;25.326;2023-09-12T04:32:07;1.85;;;1.75;;
34805;SDS011;65084;42.196;25.326;2023-09-12T04:34:34;2.45;;;1.80;;
34805;SDS011;65084;42.196;25.326;2023-09-12T04:37:03;4.97;;;1.90;;
34805;SDS011;65084;42.196;25.326;2023-09-12T04:39:30;6.95;;;2.00;;
34805;SDS011;65084;42.196;25.326;2023-09-12T04:41:58;4.82;;;1.80;;
34805;SDS011;65084;42.196;25.326;2023-09-12T04:44:25;7.90;;;2.80;;
34805;SDS011;65084;42.196;25.326;2023-09-12T04:46:52;15.93;;;2.17;;
34805;SDS011;65084;42.196;25.326;2023-09-12T04:49:20;16.70;;;2.40;;
34805;SDS011;65084;42.196;25.326;2023-09-12T04:51:48;6.60;;;2.00;;
34805;SDS011;65084;42.196;25.326;2023-09-12T04:54:16;10.15;;;2.30;;
34805;SDS011;65084;42.196;25.326;2023-09-12T04:56:43;6.10;;;2.10;;
34805;SDS011;65084;42.196;25.326;2023-09-12T04:59:11;6.15;;;1.90;;
34805;SDS011;65084;42.196;25.326;2023-09-12T05:01:38;3.50;;;1.95;;
34805;SDS011;65084;42.196;25.326;2023-09-12T05:04:05;8.63;;;2.03;;
34805;SDS011;65084;42.196;25.326;2023-09-12T05:06:33;4.00;;;2.05;;
34805;SDS011;65084;42.196;25.326;2023-09-12T05:09:01;15.10;;;2.33;;
34805;SDS011;65084;42.196;25.326;2023-09-12T05:11:29;3.83;;;2.38;;
34805;SDS011;65084;42.196;25.326;2023-09-12T05:13:57;4.50;;;2.20;;
34805;SDS011;65084;42.196;25.326;2023-09-12T05:16:25;8.30;;;2.20;;
34805;SDS011;65084;42.196;25.326;2023-09-12T05:18:52;3.83;;;1.60;;
34805;SDS011;65084;42.196;25.326;2023-09-12T05:21:20;4.88;;;1.67;;
34805;SDS011;65084;42.196;25.326;2023-09-12T05:23:47;2.95;;;2.30;;
34805;SDS011;65084;42.196;25.326;2023-09-12T05:26:14;4.00;;;1.80;;
34805;SDS011;65084;42.196;25.326;2023-09-12T05:28:43;4.05;;;1.75;;
34805;SDS011;65084;42.196;25.326;2023-09-12T05:31:10;2.70;;;1.90;;
34805;SDS011;65084;42.196;25.326;2023-09-12T05:33:37;4.63;;;1.50;;
34805;SDS011;65084;42.196;25.326;2023-09-12T05:36:05;2.28;;;1.52;;
34805;SDS011;65084;42.196;25.326;2023-09-12T05:38:32;3.97;;;1.90;;
34805;SDS011;65084;42.196;25.326;2023-09-12T05:40:59;4.93;;;1.67;;
34805;SDS011;65084;42.196;25.326;2023-09-12T05:43:27;3.20;;;1.27;;
34805;SDS011;65084;42.196;25.326;2023-09-12T05:45:55;3.70;;;2.30;;
34805;SDS011;65084;42.196;25.326;2023-09-12T05:48:23;2.55;;;1.67;;
34805;SDS011;65084;42.196;25.326;2023-09-12T05:50:50;6.13;;;1.85;;
34805;SDS011;65084;42.196;25.326;2023-09-12T05:53:17;2.95;;;2.17;;
34805;SDS011;65084;42.196;25.326;2023-09-12T05:55:45;4.80;;;1.90;;
34805;SDS011;65084;42.196;25.326;2023-09-12T05:58:12;2.22;;;1.80;;
34805;SDS011;65084;42.196;25.326;2023-09-12T06:00:39;4.28;;;1.83;;
34805;SDS011;65084;42.196;25.326;2023-09-12T06:03:08;2.95;;;2.00;;
34805;SDS011;65084;42.196;25.326;2023-09-12T06:05:35;2.08;;;1.80;;
34805;SDS011;65084;42.196;25.326;2023-09-12T06:08:03;2.58;;;1.80;;
34805;SDS011;65084;42.196;25.326;2023-09-12T06:10:30;5.60;;;1.77;;
34805;SDS011;65084;42.196;25.326;2023-09-12T06:12:59;2.10;;;1.90;;
34805;SDS011;65084;42.196;25.326;2023-09-12T06:15:26;4.45;;;1.60;;
34805;SDS011;65084;42.196;25.326;2023-09-12T06:17:53;3.15;;;1.58;;
34805;SDS011;65084;42.196;25.326;2023-09-12T06:20:22;3.70;;;2.20;;
34805;SDS011;65084;42.196;25.326;2023-09-12T06:22:49;2.42;;;1.92;;
34805;SDS011;65084;42.196;25.326;2023-09-12T06:25:17;8.48;;;2.00;;
34805;SDS011;65084;42.196;25.326;2023-09-12T06:27:44;3.30;;;1.77;;
34805;SDS011;65084;42.196;25.326;2023-09-12T06:30:12;3.58;;;1.90;;
34805;SDS011;65084;42.196;25.326;2023-09-12T06:32:39;2.60;;;1.98;;
34805;SDS011;65084;42.196;25.326;2023-09-12T06:35:07;3.95;;;2.05;;
34805;SDS011;65084;42.196;25.326;2023-09-12T06:37:37;2.72;;;1.85;;
34805;SDS011;65084;42.196;25.326;2023-09-12T06:40:05;2.92;;;2.28;;
34805;SDS011;65084;42.196;25.326;2023-09-12T06:42:33;10.38;;;2.00;;
34805;SDS011;65084;42.196;25.326;2023-09-12T06:45:00;7.03;;;1.90;;
34805;SDS011;65084;42.196;25.326;2023-09-12T06:47:27;3.22;;;2.33;;
34805;SDS011;65084;42.196;25.326;2023-09-12T06:49:55;5.45;;;2.17;;
34805;SDS011;65084;42.196;25.326;2023-09-12T06:52:22;2.88;;;1.85;;
34805;SDS011;65084;42.196;25.326;2023-09-12T06:54:51;8.48;;;2.10;;
34805;SDS011;65084;42.196;25.326;2023-09-12T06:57:18;3.70;;;2.03;;
34805;SDS011;65084;42.196;25.326;2023-09-12T06:59:45;6.15;;;2.13;;
34805;SDS011;65084;42.196;25.326;2023-09-12T07:02:14;2.95;;;1.90;;
34805;SDS011;65084;42.196;25.326;2023-09-12T07:04:43;8.25;;;1.90;;
34805;SDS011;65084;42.196;25.326;2023-09-12T07:07:10;3.95;;;1.98;;
34805;SDS011;65084;42.196;25.326;2023-09-12T07:09:38;4.97;;;1.63;;
34805;SDS011;65084;42.196;25.326;2023-09-12T07:12:07;9.00;;;1.90;;
34805;SDS011;65084;42.196;25.326;2023-09-12T07:14:34;6.25;;;2.00;;
34805;SDS011;65084;42.196;25.326;2023-09-12T07:17:03;3.60;;;1.58;;
34805;SDS011;65084;42.196;25.326;2023-09-12T07:19:30;3.65;;;1.55;;
34805;SDS011;65084;42.196;25.326;2023-09-12T07:21:57;4.03;;;1.60;;
34805;SDS011;65084;42.196;25.326;2023-09-12T07:24:25;6.10;;;2.10;;
34805;SDS011;65084;42.196;25.326;2023-09-12T07:26:52;7.68;;;1.65;;
34805;SDS011;65084;42.196;25.326;2023-09-12T07:29:21;4.00;;;1.75;;
34805;SDS011;65084;42.196;25.326;2023-09-12T07:31:48;3.78;;;2.08;;
34805;SDS011;65084;42.196;25.326;2023-09-12T07:34:18;3.53;;;1.35;;
34805;SDS011;65084;42.196;25.326;2023-09-12T07:36:46;4.45;;;1.98;;
34805;SDS011;65084;42.196;25.326;2023-09-12T07:39:13;5.55;;;1.80;;
34805;SDS011;65084;42.196;25.326;2023-09-12T07:41:40;5.18;;;1.60;;
34805;SDS011;65084;42.196;25.326;2023-09-12T07:44:08;1.75;;;1.65;;
34805;SDS011;65084;42.196;25.326;2023-09-12T07:46:37;4.07;;;1.70;;
34805;SDS011;65084;42.196;25.326;2023-09-12T07:49:05;6.07;;;1.40;;
34805;SDS011;65084;42.196;25.326;2023-09-12T07:51:34;5.68;;;2.00;;
34805;SDS011;65084;42.196;25.326;2023-09-12T07:54:01;2.53;;;1.88;;
34805;SDS011;65084;42.196;25.326;2023-09-12T07:56:29;6.05;;;2.05;;
34805;SDS011;65084;42.196;25.326;2023-09-12T07:58:56;2.67;;;2.17;;
34805;SDS011;65084;42.196;25.326;2023-09-12T08:01:24;3.17;;;1.77;;
34805;SDS011;65084;42.196;25.326;2023-09-12T08:03:53;6.55;;;1.98;;
34805;SDS011;65084;42.196;25.326;2023-09-12T08:06:21;5.65;;;2.20;;
34805;SDS011;65084;42.196;25.326;2023-09-12T08:08:49;7.47;;;2.20;;
34805;SDS011;65084;42.196;25.326;2023-09-12T08:11:16;6.45;;;1.77;;
34805;SDS011;65084;42.196;25.326;2023-09-12T08:13:45;3.10;;;1.60;;
34805;SDS011;65084;42.196;25.326;2023-09-12T08:16:13;8.23;;;1.65;;
34805;SDS011;65084;42.196;25.326;2023-09-12T08:18:40;1.60;;;1.50;;
34805;SDS011;65084;42.196;25.326;2023-09-12T08:21:09;1.80;;;1.67;;
34805;SDS011;65084;42.196;25.326;2023-09-12T08:23:36;7.70;;;1.83;;
34805;SDS011;65084;42.196;25.326;2023-09-12T08:26:04;2.35;;;1.98;;
34805;SDS011;65084;42.196;25.326;2023-09-12T08:28:31;4.75;;;1.90;;
34805;SDS011;65084;42.196;25.326;2023-09-12T08:30:58;2.40;;;1.80;;
34805;SDS011;65084;42.196;25.326;2023-09-12T08:33:26;6.03;;;2.50;;
34805;SDS011;65084;42.196;25.326;2023-09-12T08:35:53;2.08;;;1.75;;
34805;SDS011;65084;42.196;25.326;2023-09-12T08:38:21;7.28;;;2.75;;
34805;SDS011;65084;42.196;25.326;2023-09-12T08:40:49;3.15;;;2.05;;
34805;SDS011;65084;42.196;25.326;2023-09-12T08:43:16;3.78;;;2.10;;
34805;SDS011;65084;42.196;25.326;2023-09-12T08:45:44;11.40;;;2.53;;
34805;SDS011;65084;42.196;25.326;2023-09-12T08:48:11;4.85;;;2.38;;
34805;SDS011;65084;42.196;25.326;2023-09-12T08:50:38;3.70;;;1.80;;
34805;SDS011;65084;42.196;25.326;2023-09-12T08:53:06;2.75;;;1.85;;
34805;SDS011;65084;42.196;25.326;2023-09-12T08:55:35;6.97;;;2.53;;
34805;SDS011;65084;42.196;25.326;2023-09-12T08:58:03;3.33;;;1.85;;
34805;SDS011;65084;42.196;25.326;2023-09-12T09:00:30;6.00;;;1.80;;
34805;SDS011;65084;42.196;25.326;2023-09-12T09:02:58;5.25;;;2.05;;
34805;SDS011;65084;42.196;25.326;2023-09-12T09:05:26;2.95;;;1.92;;
34805;SDS011;65084;42.196;25.326;2023-09-12T09:07:54;2.00;;;1.80;;
34805;SDS011;65084;42.196;25.326;2023-09-12T09:10:22;3.85;;;1.88;;
34805;SDS011;65084;42.196;25.326;2023-09-12T09:12:51;3.22;;;1.88;;
34805;SDS011;65084;42.196;25.326;2023-09-12T09:15:22;2.75;;;1.77;;
34805;SDS011;65084;42.196;25.326;2023-09-12T09:17:49;3.55;;;1.85;;
34805;SDS011;65084;42.196;25.326;2023-09-12T09:20:21;5.00;;;1.58;;
34805;SDS011;65084;42.196;25.326;2023-09-12T09:22:55;2.50;;;1.60;;
34805;SDS011;65084;42.196;25.326;2023-09-12T09:25:23;2.95;;;1.58;;
34805;SDS011;65084;42.196;25.326;2023-09-12T09:27:51;4.78;;;1.92;;
34805;SDS011;65084;42.196;25.326;2023-09-12T09:30:20;4.55;;;2.10;;
34805;SDS011;65084;42.196;25.326;2023-09-12T09:35:22;4.07;;;1.98;;
34805;SDS011;65084;42.196;25.326;2023-09-12T09:37:49;7.18;;;2.13;;
34805;SDS011;65084;42.196;25.326;2023-09-12T09:40:17;4.07;;;1.95;;
34805;SDS011;65084;42.196;25.326;2023-09-12T09:42:44;3.38;;;2.25;;
34805;SDS011;65084;42.196;25.326;2023-09-12T09:45:13;5.65;;;1.92;;
34805;SDS011;65084;42.196;25.326;2023-09-12T09:47:41;6.07;;;2.10;;
34805;SDS011;65084;42.196;25.326;2023-09-12T09:50:10;5.65;;;2.30;;
34805;SDS011;65084;42.196;25.326;2023-09-12T09:52:40;12.02;;;2.50;;
34805;SDS011;65084;42.196;25.326;2023-09-12T09:55:12;5.03;;;1.80;;
34805;SDS011;65084;42.196;25.326;2023-09-12T09:57:40;2.97;;;1.98;;
34805;SDS011;65084;42.196;25.326;2023-09-12T10:00:07;6.18;;;2.20;;
34805;SDS011;65084;42.196;25.326;2023-09-12T10:02:41;4.60;;;1.77;;
34805;SDS011;65084;42.196;25.326;2023-09-12T10:05:09;6.13;;;2.10;;
34805;SDS011;65084;42.196;25.326;2023-09-12T10:07:37;4.88;;;2.13;;
34805;SDS011;65084;42.196;25.326;2023-09-12T10:10:05;6.97;;;2.58;;
34805;SDS011;65084;42.196;25.326;2023-09-12T10:12:33;4.72;;;2.65;;
34805;SDS011;65084;42.196;25.326;2023-09-12T10:15:01;5.43;;;2.45;;
34805;SDS011;65084;42.196;25.326;2023-09-12T10:17:31;3.45;;;2.08;;
34805;SDS011;65084;42.196;25.326;2023-09-12T10:20:01;6.45;;;2.63;;
34805;SDS011;65084;42.196;25.326;2023-09-12T10:22:32;7.20;;;3.03;;
34805;SDS011;65084;42.196;25.326;2023-09-12T10:25:01;3.58;;;2.63;;
34805;SDS011;65084;42.196;25.326;2023-09-12T10:27:28;7.93;;;2.58;;
34805;SDS011;65084;42.196;25.326;2023-09-12T10:29:56;6.95;;;2.40;;
34805;SDS011;65084;42.196;25.326;2023-09-12T10:32:25;2.65;;;2.45;;
34805;SDS011;65084;42.196;25.326;2023-09-12T10:34:53;10.10;;;2.38;;
34805;SDS011;65084;42.196;25.326;2023-09-12T10:37:22;3.67;;;2.50;;
34805;SDS011;65084;42.196;25.326;2023-09-12T10:39:52;9.70;;;3.17;;
34805;SDS011;65084;42.196;25.326;2023-09-12T10:42:20;6.53;;;2.50;;
34805;SDS011;65084;42.196;25.326;2023-09-12T10:44:48;6.25;;;2.40;;
34805;SDS011;65084;42.196;25.326;2023-09-12T10:47:16;9.48;;;2.60;;
34805;SDS011;65084;42.196;25.326;2023-09-12T10:49:44;14.27;;;3.22;;
34805;SDS011;65084;42.196;25.326;2023-09-12T10:52:22;3.25;;;2.63;;
34805;SDS011;65084;42.196;25.326;2023-09-12T10:54:50;6.70;;;2.65;;
34805;SDS011;65084;42.196;25.326;2023-09-12T10:57:18;6.40;;;2.75;;
34805;SDS011;65084;42.196;25.326;2023-09-12T11:02:33;6.85;;;2.60;;
34805;SDS011;65084;42.196;25.326;2023-09-12T11:05:02;10.55;;;2.90;;
34805;SDS011;65084;42.196;25.326;2023-09-12T11:07:32;6.30;;;3.47;;
34805;SDS011;65084;42.196;25.326;2023-09-12T11:12:48;5.45;;;2.75;;
34805;SDS011;65084;42.196;25.326;2023-09-12T11:15:16;5.60;;;2.85;;
34805;SDS011;65084;42.196;25.326;2023-09-12T11:17:44;6.20;;;2.20;;
34805;SDS011;65084;42.196;25.326;2023-09-12T11:20:12;7.53;;;2.47;;
34805;SDS011;65084;42.196;25.326;2023-09-12T11:22:42;8.63;;;2.88;;
34805;SDS011;65084;42.196;25.326;2023-09-12T11:25:16;9.50;;;2.70;;
34805;SDS011;65084;42.196;25.326;2023-09-12T11:27:44;6.05;;;2.60;;
34805;SDS011;65084;42.196;25.326;2023-09-12T11:30:12;6.80;;;2.97;;
34805;SDS011;65084;42.196;25.326;2023-09-12T11:32:40;9.05;;;2.67;;
34805;SDS011;65084;42.196;25.326;2023-09-12T11:35:11;9.40;;;2.75;;
34805;SDS011;65084;42.196;25.326;2023-09-12T11:37:38;5.55;;;3.03;;
34805;SDS011;65084;42.196;25.326;2023-09-12T11:40:22;6.90;;;3.00;;
34805;SDS011;65084;42.196;25.326;2023-09-12T11:42:49;6.43;;;2.65;;
34805;SDS011;65084;42.196;25.326;2023-09-12T11:45:17;8.50;;;3.25;;
34805;SDS011;65084;42.196;25.326;2023-09-12T11:47:45;6.60;;;3.53;;
34805;SDS011;65084;42.196;25.326;2023-09-12T11:50:25;7.10;;;3.03;;
34805;SDS011;65084;42.196;25.326;2023-09-12T11:52:58;5.35;;;3.17;;
34805;SDS011;65084;42.196;25.326;2023-09-12T11:55:26;6.88;;;2.50;;
34805;SDS011;65084;42.196;25.326;2023-09-12T11:57:55;5.43;;;2.85;;
34805;SDS011;65084;42.196;25.326;2023-09-12T12:00:23;9.43;;;2.50;;
34805;SDS011;65084;42.196;25.326;2023-09-12T12:02:51;6.95;;;2.92;;
34805;SDS011;65084;42.196;25.326;2023-09-12T12:05:18;11.02;;;2.60;;
34805;SDS011;65084;42.196;25.326;2023-09-12T12:07:46;8.48;;;2.90;;
34805;SDS011;65084;42.196;25.326;2023-09-12T12:10:13;3.65;;;2.88;;
34805;SDS011;65084;42.196;25.326;2023-09-12T12:12:43;5.78;;;3.05;;
34805;SDS011;65084;42.196;25.326;2023-09-12T12:15:11;6.20;;;2.95;;
34805;SDS011;65084;42.196;25.326;2023-09-12T12:17:40;11.10;;;2.92;;
34805;SDS011;65084;42.196;25.326;2023-09-12T12:20:08;7.32;;;2.67;;
34805;SDS011;65084;42.196;25.326;2023-09-12T12:22:36;5.25;;;2.72;;
34805;SDS011;65084;42.196;25.326;2023-09-12T12:25:07;6.28;;;3.40;;
34805;SDS011;65084;42.196;25.326;2023-09-12T12:27:37;6.82;;;3.05;;
34805;SDS011;65084;42.196;25.326;2023-09-12T12:30:07;5.72;;;2.75;;
34805;SDS011;65084;42.196;25.326;2023-09-12T12:32:35;6.18;;;2.80;;
34805;SDS011;65084;42.196;25.326;2023-09-12T12:35:03;6.28;;;2.78;;
34805;SDS011;65084;42.196;25.326;2023-09-12T12:37:32;7.88;;;3.20;;
34805;SDS011;65084;42.196;25.326;2023-09-12T12:40:01;6.20;;;2.53;;
34805;SDS011;65084;42.196;25.326;2023-09-12T12:42:32;7.97;;;2.60;;
34805;SDS011;65084;42.196;25.326;2023-09-12T12:45:00;7.05;;;2.97;;
34805;SDS011;65084;42.196;25.326;2023-09-12T12:47:29;8.85;;;2.90;;
34805;SDS011;65084;42.196;25.326;2023-09-12T12:49:57;4.47;;;3.42;;
34805;SDS011;65084;42.196;25.326;2023-09-12T12:55:10;11.95;;;3.08;;
34805;SDS011;65084;42.196;25.326;2023-09-12T12:57:39;17.27;;;3.17;;
34805;SDS011;65084;42.196;25.326;2023-09-12T13:00:08;8.05;;;3.22;;
34805;SDS011;65084;42.196;25.326;2023-09-12T13:02:37;6.57;;;3.05;;
34805;SDS011;65084;42.196;25.326;2023-09-12T13:05:06;5.63;;;3.10;;
34805;SDS011;65084;42.196;25.326;2023-09-12T13:07:34;16.67;;;3.22;;
34805;SDS011;65084;42.196;25.326;2023-09-12T13:10:01;9.05;;;2.40;;
34805;SDS011;65084;42.196;25.326;2023-09-12T13:12:29;10.57;;;2.88;;
34805;SDS011;65084;42.196;25.326;2023-09-12T13:14:57;4.38;;;3.00;;
34805;SDS011;65084;42.196;25.326;2023-09-12T13:17:24;5.63;;;2.47;;
34805;SDS011;65084;42.196;25.326;2023-09-12T13:19:53;5.97;;;2.60;;
34805;SDS011;65084;42.196;25.326;2023-09-12T13:22:20;10.85;;;2.78;;
34805;SDS011;65084;42.196;25.326;2023-09-12T13:24:47;12.60;;;2.63;;
34805;SDS011;65084;42.196;25.326;2023-09-12T13:27:14;4.57;;;2.83;;
34805;SDS011;65084;42.196;25.326;2023-09-12T13:29:42;9.48;;;2.60;;
34805;SDS011;65084;42.196;25.326;2023-09-12T13:32:09;15.52;;;2.83;;
34805;SDS011;65084;42.196;25.326;2023-09-12T13:34:37;4.70;;;3.00;;
34805;SDS011;65084;42.196;25.326;2023-09-12T13:37:06;3.70;;;2.75;;
34805;SDS011;65084;42.196;25.326;2023-09-12T13:39:33;12.90;;;2.97;;
34805;SDS011;65084;42.196;25.326;2023-09-12T13:42:01;7.03;;;2.88;;
34805;SDS011;65084;42.196;25.326;2023-09-12T13:44:28;7.47;;;2.70;;
34805;SDS011;65084;42.196;25.326;2023-09-12T13:46:55;9.68;;;3.25;;
34805;SDS011;65084;42.196;25.326;2023-09-12T13:49:23;4.90;;;2.83;;
34805;SDS011;65084;42.196;25.326;2023-09-12T13:51:50;4.95;;;3.03;;
34805;SDS011;65084;42.196;25.326;2023-09-12T13:54:19;6.18;;;2.72;;
34805;SDS011;65084;42.196;25.326;2023-09-12T13:56:46;7.28;;;3.17;;
34805;SDS011;65084;42.196;25.326;2023-09-12T13:59:13;10.23;;;3.05;;
34805;SDS011;65084;42.196;25.326;2023-09-12T14:01:41;5.82;;;2.60;;
34805;SDS011;65084;42.196;25.326;2023-09-12T14:04:08;9.73;;;2.78;;
34805;SDS011;65084;42.196;25.326;2023-09-12T14:06:36;13.85;;;2.45;;
34805;SDS011;65084;42.196;25.326;2023-09-12T14:09:03;6.90;;;2.88;;
34805;SDS011;65084;42.196;25.326;2023-09-12T14:11:32;9.23;;;2.90;;
34805;SDS011;65084;42.196;25.326;2023-09-12T14:13:59;5.38;;;3.13;;
34805;SDS011;65084;42.196;25.326;2023-09-12T14:16:26;6.07;;;2.60;;
34805;SDS011;65084;42.196;25.326;2023-09-12T14:18:54;7.10;;;3.17;;
34805;SDS011;65084;42.196;25.326;2023-09-12T14:21:21;4.28;;;2.60;;
34805;SDS011;65084;42.196;25.326;2023-09-12T14:23:48;7.28;;;2.83;;
34805;SDS011;65084;42.196;25.326;2023-09-12T14:26:15;8.95;;;3.15;;
34805;SDS011;65084;42.196;25.326;2023-09-12T14:28:44;12.45;;;2.50;;
34805;SDS011;65084;42.196;25.326;2023-09-12T14:31:12;5.15;;;2.72;;
34805;SDS011;65084;42.196;25.326;2023-09-12T14:33:41;4.00;;;2.70;;
34805;SDS011;65084;42.196;25.326;2023-09-12T14:36:07;8.30;;;2.90;;
34805;SDS011;65084;42.196;25.326;2023-09-12T14:38:35;7.65;;;2.85;;
34805;SDS011;65084;42.196;25.326;2023-09-12T14:41:02;5.25;;;3.15;;
34805;SDS011;65084;42.196;25.326;2023-09-12T14:43:29;9.02;;;3.00;;
34805;SDS011;65084;42.196;25.326;2023-09-12T14:45:58;10.40;;;2.95;;
34805;SDS011;65084;42.196;25.326;2023-09-12T14:48:26;6.93;;;3.40;;
34805;SDS011;65084;42.196;25.326;2023-09-12T14:50:53;6.88;;;2.85;;